Pagrindinis puslapis
METAR-TAF:

METAR-TAF

Oro uostai :

Stokholmas-Skavsta, Švedija

platuma: 58-47N, ilguma: 016-55E, Aukštis: 43 m

Dabartinis oras

Ataskaita buvo paskelbta 32 minutes, ne 09:20 UTC
Vėjas 3 kt iš Pietų/Pietvakarių
Temperatūra 8°C
Drėgmė 93%
Slėgis 1005 hPa
Matomumas 10 km arba daugiau
Išsisklaidę debesys ne aukštis 600 ft
Su prošvaistėmis ne aukštis 4900 ft
lietus

METAR: ESKN 290920Z 21003KT 9999 -RA SCT006 BKN049 08/07 Q1005

Laikas: 10:52 (09:52 UTC)

Prognozė

Ataskaita buvo paskelbta 4 valandos ir 22 minutes, ne 05:30 UTC
Prognozė galioja nuo 29 metu 06 UTC su 30 metu 06 UTC
Vėjas 8 kt iš Pietų/Pietvakarių
Matomumas 10 km arba daugiau
nėra debesų žemiau 1500 m ir nėra kamuolinių lietaus debesų
Laikinai
nuo 29 metu 18 UTC su 30 metu 06 UTC
Matomumas: 0200 m
ne aukštis 200 ft
rūkas

TAF: ESKN 290530Z 2906/3006 21008KT CAVOK TEMPO 2918/3006 0200 FG VV002

Orai ataskaitas ir orų prognozės (METAR, TAF).

turimą stotys yra geltonos ir raudonos taškus žemėlapyje.

Perkelti pele per norėdami pamatyti stoties vardą.

Tada spustelėkite, norėdami matyti oro stebėjimo ir prognozės.

Norėdami pakeisti žemėlapį: spustelėkite ant žalios mygtukų su juodo kryžiaus žemyn,; žalią mygtuką su brūkšneliu, jei norite nutolinti; arba žalių rodyklių gretimoms žemėlapius.


METAR-TAF: